sensor_id;sensor_type;location;lat;lon;timestamp;pressure;altitude;pressure_sealevel;temperature;humidity
29733;BME280;16643;43.158;25.302;2023-04-27T00:01:48;97697.09;;;10.27;100.00
29733;BME280;16643;43.158;25.302;2023-04-27T00:04:14;97685.59;;;10.07;100.00
29733;BME280;16643;43.158;25.302;2023-04-27T00:06:41;97693.78;;;10.22;100.00
29733;BME280;16643;43.158;25.302;2023-04-27T00:09:07;97737.63;;;10.31;100.00
29733;BME280;16643;43.158;25.302;2023-04-27T00:11:33;97648.81;;;9.95;100.00
29733;BME280;16643;43.158;25.302;2023-04-27T00:13:58;97704.34;;;10.40;100.00
29733;BME280;16643;43.158;25.302;2023-04-27T00:16:25;97679.31;;;10.14;100.00
29733;BME280;16643;43.158;25.302;2023-04-27T00:18:50;97672.13;;;9.96;100.00
29733;BME280;16643;43.158;25.302;2023-04-27T00:21:18;97696.16;;;10.28;100.00
29733;BME280;16643;43.158;25.302;2023-04-27T00:23:44;97669.88;;;9.87;100.00
29733;BME280;16643;43.158;25.302;2023-04-27T00:26:10;97683.06;;;10.06;100.00
29733;BME280;16643;43.158;25.302;2023-04-27T00:28:35;97700.97;;;9.89;100.00
29733;BME280;16643;43.158;25.302;2023-04-27T00:31:01;97750.78;;;9.73;100.00
29733;BME280;16643;43.158;25.302;2023-04-27T00:33:28;97714.31;;;9.78;100.00
29733;BME280;16643;43.158;25.302;2023-04-27T00:35:54;97689.56;;;9.68;100.00
29733;BME280;16643;43.158;25.302;2023-04-27T00:38:20;97726.84;;;9.92;100.00
29733;BME280;16643;43.158;25.302;2023-04-27T00:40:45;97726.84;;;-142.82;100.00
29733;BME280;16643;43.158;25.302;2023-04-27T00:43:11;97726.22;;;9.83;100.00
29733;BME280;16643;43.158;25.302;2023-04-27T00:45:41;97704.53;;;9.60;100.00
29733;BME280;16643;43.158;25.302;2023-04-27T00:48:09;97673.88;;;9.46;100.00
29733;BME280;16643;43.158;25.302;2023-04-27T00:50:34;97739.84;;;9.64;100.00
29733;BME280;16643;43.158;25.302;2023-04-27T00:53:04;97705.72;;;9.50;100.00
29733;BME280;16643;43.158;25.302;2023-04-27T00:55:30;97690.41;;;9.42;100.00
29733;BME280;16643;43.158;25.302;2023-04-27T00:57:55;97711.97;;;9.44;100.00
29733;BME280;16643;43.158;25.302;2023-04-27T01:00:21;97700.84;;;9.40;100.00
29733;BME280;16643;43.158;25.302;2023-04-27T01:02:47;97709.16;;;9.24;100.00
29733;BME280;16643;43.158;25.302;2023-04-27T01:05:13;97681.75;;;8.89;100.00
29733;BME280;16643;43.158;25.302;2023-04-27T01:07:39;97756.56;;;9.27;100.00
29733;BME280;16643;43.158;25.302;2023-04-27T01:10:06;97742.19;;;9.17;100.00
29733;BME280;16643;43.158;25.302;2023-04-27T01:12:32;97760.25;;;9.20;100.00
29733;BME280;16643;43.158;25.302;2023-04-27T01:14:58;97764.00;;;9.12;100.00
29733;BME280;16643;43.158;25.302;2023-04-27T01:17:24;97749.63;;;8.70;100.00
29733;BME280;16643;43.158;25.302;2023-04-27T01:19:50;97744.22;;;8.80;100.00
29733;BME280;16643;43.158;25.302;2023-04-27T01:22:20;97723.72;;;8.70;100.00
29733;BME280;16643;43.158;25.302;2023-04-27T01:24:46;97772.97;;;9.00;100.00
29733;BME280;16643;43.158;25.302;2023-04-27T01:27:11;97763.63;;;8.94;100.00
29733;BME280;16643;43.158;25.302;2023-04-27T01:29:38;97770.88;;;8.83;100.00
29733;BME280;16643;43.158;25.302;2023-04-27T01:32:04;97757.81;;;8.86;100.00
29733;BME280;16643;43.158;25.302;2023-04-27T01:34:30;97781.78;;;8.94;100.00
29733;BME280;16643;43.158;25.302;2023-04-27T01:36:55;97770.59;;;8.92;100.00
29733;BME280;16643;43.158;25.302;2023-04-27T01:39:21;97767.22;;;8.90;100.00
29733;BME280;16643;43.158;25.302;2023-04-27T01:41:47;97786.28;;;8.88;100.00
29733;BME280;16643;43.158;25.302;2023-04-27T01:44:13;97756.56;;;8.70;100.00
29733;BME280;16643;43.158;25.302;2023-04-27T01:46:38;97784.75;;;8.81;100.00
29733;BME280;16643;43.158;25.302;2023-04-27T01:49:04;97778.59;;;8.85;100.00
29733;BME280;16643;43.158;25.302;2023-04-27T01:51:30;97788.66;;;8.95;100.00
29733;BME280;16643;43.158;25.302;2023-04-27T01:53:57;97785.06;;;8.70;100.00
29733;BME280;16643;43.158;25.302;2023-04-27T01:56:23;97795.84;;;8.86;100.00
29733;BME280;16643;43.158;25.302;2023-04-27T01:58:48;97783.28;;;8.72;100.00
29733;BME280;16643;43.158;25.302;2023-04-27T02:01:14;97795.31;;;8.74;100.00
29733;BME280;16643;43.158;25.302;2023-04-27T02:03:40;97752.94;;;8.46;100.00
29733;BME280;16643;43.158;25.302;2023-04-27T02:06:06;97791.59;;;8.83;100.00
29733;BME280;16643;43.158;25.302;2023-04-27T02:08:33;97734.66;;;8.51;100.00
29733;BME280;16643;43.158;25.302;2023-04-27T02:10:59;97779.16;;;8.65;100.00
29733;BME280;16643;43.158;25.302;2023-04-27T02:13:24;97782.38;;;8.42;100.00
29733;BME280;16643;43.158;25.302;2023-04-27T02:15:50;97755.19;;;8.24;100.00
29733;BME280;16643;43.158;25.302;2023-04-27T02:18:16;97763.78;;;8.26;100.00
29733;BME280;16643;43.158;25.302;2023-04-27T02:20:43;97785.81;;;8.43;100.00
29733;BME280;16643;43.158;25.302;2023-04-27T02:23:08;97797.38;;;8.29;100.00
29733;BME280;16643;43.158;25.302;2023-04-27T02:25:36;97792.75;;;8.42;100.00
29733;BME280;16643;43.158;25.302;2023-04-27T02:28:02;97783.38;;;8.36;100.00
29733;BME280;16643;43.158;25.302;2023-04-27T02:30:28;97797.72;;;8.50;100.00
29733;BME280;16643;43.158;25.302;2023-04-27T02:32:56;97780.91;;;8.33;100.00
29733;BME280;16643;43.158;25.302;2023-04-27T02:35:21;97779.25;;;8.29;100.00
29733;BME280;16643;43.158;25.302;2023-04-27T02:37:47;97784.47;;;8.28;100.00
29733;BME280;16643;43.158;25.302;2023-04-27T02:40:12;97783.53;;;8.30;100.00
29733;BME280;16643;43.158;25.302;2023-04-27T02:42:38;97798.13;;;8.34;100.00
29733;BME280;16643;43.158;25.302;2023-04-27T02:45:06;97811.94;;;8.35;100.00
29733;BME280;16643;43.158;25.302;2023-04-27T02:47:31;97763.47;;;8.06;100.00
29733;BME280;16643;43.158;25.302;2023-04-27T02:49:57;97794.75;;;8.32;100.00
29733;BME280;16643;43.158;25.302;2023-04-27T02:52:23;97821.28;;;8.41;100.00
29733;BME280;16643;43.158;25.302;2023-04-27T02:54:48;97812.66;;;8.40;100.00
29733;BME280;16643;43.158;25.302;2023-04-27T02:57:14;97780.66;;;8.43;100.00
29733;BME280;16643;43.158;25.302;2023-04-27T02:59:39;97810.94;;;8.71;100.00
29733;BME280;16643;43.158;25.302;2023-04-27T03:02:05;97778.66;;;8.52;100.00
29733;BME280;16643;43.158;25.302;2023-04-27T03:04:31;97811.69;;;8.75;100.00
29733;BME280;16643;43.158;25.302;2023-04-27T03:06:56;97799.72;;;8.71;100.00
29733;BME280;16643;43.158;25.302;2023-04-27T03:09:22;97815.25;;;8.71;100.00
29733;BME280;16643;43.158;25.302;2023-04-27T03:11:47;97800.44;;;8.45;100.00
29733;BME280;16643;43.158;25.302;2023-04-27T03:14:13;97826.84;;;8.58;100.00
29733;BME280;16643;43.158;25.302;2023-04-27T03:16:39;97836.88;;;8.70;100.00
29733;BME280;16643;43.158;25.302;2023-04-27T03:19:05;97814.50;;;8.67;100.00
29733;BME280;16643;43.158;25.302;2023-04-27T03:21:31;97835.97;;;8.71;100.00
29733;BME280;16643;43.158;25.302;2023-04-27T03:23:57;97829.06;;;8.71;100.00
29733;BME280;16643;43.158;25.302;2023-04-27T03:26:22;97818.84;;;8.67;100.00
29733;BME280;16643;43.158;25.302;2023-04-27T03:28:48;97840.19;;;8.75;100.00
29733;BME280;16643;43.158;25.302;2023-04-27T03:31:14;97832.59;;;8.69;100.00
29733;BME280;16643;43.158;25.302;2023-04-27T03:33:40;97848.72;;;8.80;100.00
29733;BME280;16643;43.158;25.302;2023-04-27T03:36:06;97853.63;;;8.89;100.00
29733;BME280;16643;43.158;25.302;2023-04-27T03:38:33;97848.31;;;8.94;100.00
29733;BME280;16643;43.158;25.302;2023-04-27T03:41:00;97832.22;;;8.50;100.00
29733;BME280;16643;43.158;25.302;2023-04-27T03:43:26;97855.25;;;8.61;100.00
29733;BME280;16643;43.158;25.302;2023-04-27T03:45:52;97840.88;;;8.49;100.00
29733;BME280;16643;43.158;25.302;2023-04-27T03:48:18;97847.56;;;8.58;100.00
29733;BME280;16643;43.158;25.302;2023-04-27T03:50:44;97852.66;;;8.61;100.00
29733;BME280;16643;43.158;25.302;2023-04-27T03:53:11;97838.47;;;8.43;100.00
29733;BME280;16643;43.158;25.302;2023-04-27T03:55:40;97863.47;;;8.44;100.00
29733;BME280;16643;43.158;25.302;2023-04-27T03:58:06;97841.31;;;8.34;100.00
29733;BME280;16643;43.158;25.302;2023-04-27T04:00:35;97865.28;;;8.41;100.00
29733;BME280;16643;43.158;25.302;2023-04-27T04:03:01;97857.81;;;8.28;100.00
29733;BME280;16643;43.158;25.302;2023-04-27T04:05:27;97850.66;;;8.02;100.00
29733;BME280;16643;43.158;25.302;2023-04-27T04:07:52;97870.97;;;8.19;100.00
29733;BME280;16643;43.158;25.302;2023-04-27T04:10:18;97840.22;;;8.07;100.00
29733;BME280;16643;43.158;25.302;2023-04-27T04:12:43;97866.38;;;8.32;100.00
29733;BME280;16643;43.158;25.302;2023-04-27T04:15:09;97875.75;;;8.36;100.00
29733;BME280;16643;43.158;25.302;2023-04-27T04:17:35;97834.28;;;8.37;100.00
29733;BME280;16643;43.158;25.302;2023-04-27T04:20:01;97877.91;;;8.54;100.00
29733;BME280;16643;43.158;25.302;2023-04-27T04:22:31;97841.34;;;8.32;100.00
29733;BME280;16643;43.158;25.302;2023-04-27T04:24:56;97878.16;;;8.44;100.00
29733;BME280;16643;43.158;25.302;2023-04-27T04:27:22;97900.66;;;8.42;100.00
29733;BME280;16643;43.158;25.302;2023-04-27T04:29:48;97853.38;;;8.35;100.00
29733;BME280;16643;43.158;25.302;2023-04-27T04:32:14;97832.69;;;8.33;100.00
29733;BME280;16643;43.158;25.302;2023-04-27T04:34:46;97883.44;;;8.73;100.00
29733;BME280;16643;43.158;25.302;2023-04-27T04:37:13;97882.31;;;8.49;100.00
29733;BME280;16643;43.158;25.302;2023-04-27T04:39:39;97882.31;;;-142.82;100.00
29733;BME280;16643;43.158;25.302;2023-04-27T04:42:05;97909.25;;;8.44;100.00
29733;BME280;16643;43.158;25.302;2023-04-27T04:44:30;97847.81;;;8.49;100.00
29733;BME280;16643;43.158;25.302;2023-04-27T04:46:56;97838.59;;;8.38;100.00
29733;BME280;16643;43.158;25.302;2023-04-27T04:49:22;74907.28;;;-142.82;100.00
29733;BME280;16643;43.158;25.302;2023-04-27T04:51:47;43048.97;;;-142.82;100.00
29733;BME280;16643;43.158;25.302;2023-04-27T04:54:13;97890.75;;;8.23;100.00
29733;BME280;16643;43.158;25.302;2023-04-27T04:56:39;97898.38;;;8.28;100.00
29733;BME280;16643;43.158;25.302;2023-04-27T04:59:05;97893.22;;;8.26;100.00
29733;BME280;16643;43.158;25.302;2023-04-27T05:01:31;97954.69;;;8.57;100.00
29733;BME280;16643;43.158;25.302;2023-04-27T05:03:56;97904.91;;;8.44;100.00
29733;BME280;16643;43.158;25.302;2023-04-27T05:06:22;97939.28;;;8.51;100.00
29733;BME280;16643;43.158;25.302;2023-04-27T05:08:48;97919.44;;;8.50;100.00
29733;BME280;16643;43.158;25.302;2023-04-27T05:11:13;74742.88;;;-144.12;100.00
29733;BME280;16643;43.158;25.302;2023-04-27T05:13:39;97868.59;;;8.12;100.00
29733;BME280;16643;43.158;25.302;2023-04-27T05:16:05;97949.41;;;8.60;100.00
29733;BME280;16643;43.158;25.302;2023-04-27T05:18:31;97938.56;;;8.46;100.00
29733;BME280;16643;43.158;25.302;2023-04-27T05:20:57;97937.59;;;8.48;100.00
29733;BME280;16643;43.158;25.302;2023-04-27T05:23:22;97950.56;;;8.48;100.00
29733;BME280;16643;43.158;25.302;2023-04-27T05:25:48;97930.97;;;8.36;100.00
29733;BME280;16643;43.158;25.302;2023-04-27T05:28:14;97930.66;;;8.50;100.00
29733;BME280;16643;43.158;25.302;2023-04-27T05:30:40;97956.44;;;8.55;100.00
29733;BME280;16643;43.158;25.302;2023-04-27T05:33:06;97948.75;;;8.52;100.00
29733;BME280;16643;43.158;25.302;2023-04-27T05:35:32;97960.53;;;8.63;100.00
29733;BME280;16643;43.158;25.302;2023-04-27T05:37:58;97950.28;;;8.59;100.00
29733;BME280;16643;43.158;25.302;2023-04-27T05:40:23;97958.81;;;8.64;100.00
29733;BME280;16643;43.158;25.302;2023-04-27T05:42:49;97941.75;;;8.55;100.00
29733;BME280;16643;43.158;25.302;2023-04-27T05:45:15;97965.69;;;8.65;100.00
29733;BME280;16643;43.158;25.302;2023-04-27T05:47:41;97961.88;;;8.46;100.00
29733;BME280;16643;43.158;25.302;2023-04-27T05:50:07;97980.72;;;8.51;100.00
29733;BME280;16643;43.158;25.302;2023-04-27T05:52:33;97958.63;;;8.36;100.00
29733;BME280;16643;43.158;25.302;2023-04-27T05:54:59;97939.53;;;8.40;100.00
29733;BME280;16643;43.158;25.302;2023-04-27T05:57:25;97962.13;;;8.35;100.00
29733;BME280;16643;43.158;25.302;2023-04-27T05:59:51;97906.00;;;7.98;100.00
29733;BME280;16643;43.158;25.302;2023-04-27T06:02:18;97961.94;;;8.43;100.00
29733;BME280;16643;43.158;25.302;2023-04-27T06:04:44;97949.31;;;8.27;100.00
29733;BME280;16643;43.158;25.302;2023-04-27T06:07:12;97949.97;;;8.37;100.00
29733;BME280;16643;43.158;25.302;2023-04-27T06:09:38;97964.53;;;8.41;100.00
29733;BME280;16643;43.158;25.302;2023-04-27T06:12:05;97977.19;;;8.53;100.00
29733;BME280;16643;43.158;25.302;2023-04-27T06:14:32;97983.00;;;8.63;100.00
29733;BME280;16643;43.158;25.302;2023-04-27T06:16:58;97962.97;;;8.69;100.00
29733;BME280;16643;43.158;25.302;2023-04-27T06:19:24;97959.75;;;8.60;100.00
29733;BME280;16643;43.158;25.302;2023-04-27T06:21:52;97976.72;;;8.73;100.00
29733;BME280;16643;43.158;25.302;2023-04-27T06:24:18;97969.00;;;8.70;100.00
29733;BME280;16643;43.158;25.302;2023-04-27T06:26:44;97977.13;;;8.56;100.00
29733;BME280;16643;43.158;25.302;2023-04-27T06:29:10;97960.88;;;8.50;100.00
29733;BME280;16643;43.158;25.302;2023-04-27T06:31:35;97962.56;;;8.51;100.00
29733;BME280;16643;43.158;25.302;2023-04-27T06:34:01;97950.56;;;8.48;100.00
29733;BME280;16643;43.158;25.302;2023-04-27T06:36:28;97959.13;;;8.50;100.00
29733;BME280;16643;43.158;25.302;2023-04-27T06:38:54;97950.66;;;8.45;100.00
29733;BME280;16643;43.158;25.302;2023-04-27T06:41:24;97952.28;;;8.48;100.00
29733;BME280;16643;43.158;25.302;2023-04-27T06:43:51;97977.84;;;8.61;100.00
29733;BME280;16643;43.158;25.302;2023-04-27T06:46:17;97963.78;;;8.36;100.00
29733;BME280;16643;43.158;25.302;2023-04-27T06:48:43;97978.91;;;8.54;100.00
29733;BME280;16643;43.158;25.302;2023-04-27T06:51:08;97989.63;;;8.39;100.00
29733;BME280;16643;43.158;25.302;2023-04-27T06:53:34;97952.19;;;8.14;100.00
29733;BME280;16643;43.158;25.302;2023-04-27T06:56:00;97982.97;;;8.27;100.00
29733;BME280;16643;43.158;25.302;2023-04-27T06:58:26;97978.44;;;8.37;100.00
29733;BME280;16643;43.158;25.302;2023-04-27T07:00:52;97981.72;;;8.45;100.00
29733;BME280;16643;43.158;25.302;2023-04-27T07:03:18;97947.59;;;8.26;100.00
29733;BME280;16643;43.158;25.302;2023-04-27T07:05:43;97970.81;;;8.32;100.00
29733;BME280;16643;43.158;25.302;2023-04-27T07:08:09;97945.84;;;8.27;100.00
29733;BME280;16643;43.158;25.302;2023-04-27T07:10:35;97991.09;;;8.49;100.00
29733;BME280;16643;43.158;25.302;2023-04-27T07:13:01;97954.41;;;8.30;100.00
29733;BME280;16643;43.158;25.302;2023-04-27T07:15:26;97964.66;;;8.36;100.00
29733;BME280;16643;43.158;25.302;2023-04-27T07:17:52;97976.81;;;8.34;100.00
29733;BME280;16643;43.158;25.302;2023-04-27T07:20:21;97998.06;;;8.47;100.00
29733;BME280;16643;43.158;25.302;2023-04-27T07:22:47;97975.78;;;8.40;100.00
29733;BME280;16643;43.158;25.302;2023-04-27T07:25:13;97992.88;;;8.47;100.00
29733;BME280;16643;43.158;25.302;2023-04-27T07:27:38;97970.81;;;8.31;100.00
29733;BME280;16643;43.158;25.302;2023-04-27T07:30:06;97970.94;;;8.25;100.00
29733;BME280;16643;43.158;25.302;2023-04-27T07:32:34;97990.53;;;8.36;100.00
29733;BME280;16643;43.158;25.302;2023-04-27T07:35:00;97976.63;;;8.41;100.00
29733;BME280;16643;43.158;25.302;2023-04-27T07:37:27;97968.00;;;8.42;100.00
29733;BME280;16643;43.158;25.302;2023-04-27T07:39:53;97990.34;;;8.46;100.00
29733;BME280;16643;43.158;25.302;2023-04-27T07:42:19;98001.44;;;8.51;100.00
29733;BME280;16643;43.158;25.302;2023-04-27T07:44:46;98000.59;;;8.50;100.00
29733;BME280;16643;43.158;25.302;2023-04-27T07:47:15;97978.44;;;8.37;100.00
29733;BME280;16643;43.158;25.302;2023-04-27T07:49:43;98000.72;;;8.46;100.00
29733;BME280;16643;43.158;25.302;2023-04-27T07:52:11;97943.94;;;8.36;100.00
29733;BME280;16643;43.158;25.302;2023-04-27T07:54:36;97984.91;;;8.56;100.00
29733;BME280;16643;43.158;25.302;2023-04-27T07:57:09;98007.00;;;8.69;100.00
29733;BME280;16643;43.158;25.302;2023-04-27T07:59:38;97991.44;;;8.71;100.00
29733;BME280;16643;43.158;25.302;2023-04-27T08:02:04;74982.59;;;-142.82;100.00
29733;BME280;16643;43.158;25.302;2023-04-27T08:04:30;97999.47;;;8.94;100.00
29733;BME280;16643;43.158;25.302;2023-04-27T08:06:56;97989.78;;;9.02;100.00
29733;BME280;16643;43.158;25.302;2023-04-27T08:09:22;97959.34;;;8.77;100.00
29733;BME280;16643;43.158;25.302;2023-04-27T08:11:47;98018.91;;;9.12;100.00
29733;BME280;16643;43.158;25.302;2023-04-27T08:14:13;97972.75;;;8.92;100.00
29733;BME280;16643;43.158;25.302;2023-04-27T08:16:40;97974.63;;;8.87;100.00
29733;BME280;16643;43.158;25.302;2023-04-27T08:19:06;97989.22;;;8.91;100.00
29733;BME280;16643;43.158;25.302;2023-04-27T08:21:33;97949.56;;;8.88;100.00
29733;BME280;16643;43.158;25.302;2023-04-27T08:23:59;97972.22;;;9.14;100.00
29733;BME280;16643;43.158;25.302;2023-04-27T08:26:25;97989.78;;;9.35;100.00
29733;BME280;16643;43.158;25.302;2023-04-27T08:28:51;97978.75;;;9.27;100.00
29733;BME280;16643;43.158;25.302;2023-04-27T08:31:17;97968.19;;;9.34;100.00
29733;BME280;16643;43.158;25.302;2023-04-27T08:33:43;97978.22;;;9.46;100.00
29733;BME280;16643;43.158;25.302;2023-04-27T08:36:08;97958.72;;;9.63;100.00
29733;BME280;16643;43.158;25.302;2023-04-27T08:38:34;97986.63;;;9.84;100.00
29733;BME280;16643;43.158;25.302;2023-04-27T08:41:00;97989.28;;;9.82;100.00
29733;BME280;16643;43.158;25.302;2023-04-27T08:43:26;97973.25;;;9.98;100.00
29733;BME280;16643;43.158;25.302;2023-04-27T08:45:52;97981.97;;;9.95;100.00
29733;BME280;16643;43.158;25.302;2023-04-27T08:48:18;97987.91;;;10.28;100.00
29733;BME280;16643;43.158;25.302;2023-04-27T08:50:49;97972.50;;;10.24;100.00
29733;BME280;16643;43.158;25.302;2023-04-27T08:53:19;97972.50;;;-142.82;100.00
29733;BME280;16643;43.158;25.302;2023-04-27T08:55:46;97964.97;;;10.42;100.00
29733;BME280;16643;43.158;25.302;2023-04-27T08:58:12;74742.75;;;-142.82;100.00
29733;BME280;16643;43.158;25.302;2023-04-27T09:00:39;97973.50;;;10.72;100.00
29733;BME280;16643;43.158;25.302;2023-04-27T09:03:07;97935.09;;;10.55;100.00
29733;BME280;16643;43.158;25.302;2023-04-27T09:05:32;97939.16;;;10.63;100.00
29733;BME280;16643;43.158;25.302;2023-04-27T09:10:25;97992.06;;;10.88;100.00
29733;BME280;16643;43.158;25.302;2023-04-27T09:12:59;97971.16;;;10.65;100.00
29733;BME280;16643;43.158;25.302;2023-04-27T09:15:26;97976.81;;;10.77;100.00
29733;BME280;16643;43.158;25.302;2023-04-27T09:17:54;97982.88;;;10.78;100.00
29733;BME280;16643;43.158;25.302;2023-04-27T09:20:20;97946.47;;;10.51;100.00
29733;BME280;16643;43.158;25.302;2023-04-27T09:22:48;97959.38;;;10.81;100.00
29733;BME280;16643;43.158;25.302;2023-04-27T09:25:30;97986.13;;;11.09;100.00
29733;BME280;16643;43.158;25.302;2023-04-27T09:27:57;97975.00;;;11.06;100.00
29733;BME280;16643;43.158;25.302;2023-04-27T09:30:24;97948.13;;;11.05;100.00
29733;BME280;16643;43.158;25.302;2023-04-27T09:32:54;97962.09;;;11.03;100.00
29733;BME280;16643;43.158;25.302;2023-04-27T09:35:28;97963.91;;;11.25;100.00
29733;BME280;16643;43.158;25.302;2023-04-27T09:37:55;97939.28;;;10.84;100.00
29733;BME280;16643;43.158;25.302;2023-04-27T09:40:23;97948.72;;;10.88;100.00
29733;BME280;16643;43.158;25.302;2023-04-27T09:42:51;97965.66;;;11.25;100.00
29733;BME280;16643;43.158;25.302;2023-04-27T09:45:17;97956.72;;;11.07;99.03
29733;BME280;16643;43.158;25.302;2023-04-27T09:47:46;97976.44;;;11.14;100.00
29733;BME280;16643;43.158;25.302;2023-04-27T09:50:12;97889.13;;;10.82;100.00
29733;BME280;16643;43.158;25.302;2023-04-27T09:52:38;97945.41;;;11.08;100.00
29733;BME280;16643;43.158;25.302;2023-04-27T09:55:09;97923.28;;;10.97;100.00
29733;BME280;16643;43.158;25.302;2023-04-27T09:57:42;97902.66;;;10.92;100.00
29733;BME280;16643;43.158;25.302;2023-04-27T10:06:14;97941.00;;;11.35;100.00
29733;BME280;16643;43.158;25.302;2023-04-27T10:08:51;97934.31;;;11.28;100.00
29733;BME280;16643;43.158;25.302;2023-04-27T10:11:17;97901.28;;;11.53;100.00
29733;BME280;16643;43.158;25.302;2023-04-27T10:13:51;97949.94;;;11.98;100.00
29733;BME280;16643;43.158;25.302;2023-04-27T10:16:18;97948.34;;;12.17;100.00
29733;BME280;16643;43.158;25.302;2023-04-27T10:18:54;97907.50;;;11.96;100.00
29733;BME280;16643;43.158;25.302;2023-04-27T10:21:21;97928.34;;;11.96;96.43
29733;BME280;16643;43.158;25.302;2023-04-27T10:23:50;97930.38;;;11.88;98.58
29733;BME280;16643;43.158;25.302;2023-04-27T10:26:24;97925.97;;;12.12;100.00
29733;BME280;16643;43.158;25.302;2023-04-27T10:29:07;97939.03;;;12.32;100.00
29733;BME280;16643;43.158;25.302;2023-04-27T10:31:33;97934.47;;;12.39;100.00
29733;BME280;16643;43.158;25.302;2023-04-27T10:34:14;97963.13;;;12.17;100.00
29733;BME280;16643;43.158;25.302;2023-04-27T10:36:40;97939.34;;;12.46;100.00
29733;BME280;16643;43.158;25.302;2023-04-27T10:39:16;97925.63;;;12.63;100.00
29733;BME280;16643;43.158;25.302;2023-04-27T10:41:54;97943.97;;;13.02;100.00
29733;BME280;16643;43.158;25.302;2023-04-27T10:44:27;97946.22;;;13.31;95.23
29733;BME280;16643;43.158;25.302;2023-04-27T10:46:53;97943.81;;;13.45;96.76
29733;BME280;16643;43.158;25.302;2023-04-27T10:49:20;97917.88;;;13.42;95.66
29733;BME280;16643;43.158;25.302;2023-04-27T10:51:47;97954.25;;;13.27;95.70
29733;BME280;16643;43.158;25.302;2023-04-27T10:54:14;97933.88;;;13.15;94.29
29733;BME280;16643;43.158;25.302;2023-04-27T10:56:40;97899.66;;;13.21;97.24
29733;BME280;16643;43.158;25.302;2023-04-27T10:59:06;97887.94;;;13.31;93.06
29733;BME280;16643;43.158;25.302;2023-04-27T11:01:33;97937.63;;;13.48;89.07
29733;BME280;16643;43.158;25.302;2023-04-27T11:04:00;97919.91;;;13.55;92.86
29733;BME280;16643;43.158;25.302;2023-04-27T11:06:27;97944.06;;;13.78;91.23
29733;BME280;16643;43.158;25.302;2023-04-27T11:08:53;97933.38;;;13.45;86.38
29733;BME280;16643;43.158;25.302;2023-04-27T11:11:19;97946.38;;;13.66;92.07
29733;BME280;16643;43.158;25.302;2023-04-27T11:13:47;97940.41;;;13.82;92.81
29733;BME280;16643;43.158;25.302;2023-04-27T11:16:15;97926.06;;;13.54;91.62
29733;BME280;16643;43.158;25.302;2023-04-27T11:18:41;97926.28;;;13.68;95.22
29733;BME280;16643;43.158;25.302;2023-04-27T11:21:17;97965.16;;;13.55;88.98
29733;BME280;16643;43.158;25.302;2023-04-27T11:23:45;97928.59;;;13.55;95.17
29733;BME280;16643;43.158;25.302;2023-04-27T11:26:18;97921.34;;;13.80;93.61
29733;BME280;16643;43.158;25.302;2023-04-27T11:29:01;97942.22;;;13.80;93.55
29733;BME280;16643;43.158;25.302;2023-04-27T11:34:06;97923.16;;;13.78;87.75
29733;BME280;16643;43.158;25.302;2023-04-27T11:36:32;97915.06;;;13.85;91.94
29733;BME280;16643;43.158;25.302;2023-04-27T11:38:58;97939.75;;;14.15;90.51
29733;BME280;16643;43.158;25.302;2023-04-27T11:41:34;97945.47;;;14.04;86.11
29733;BME280;16643;43.158;25.302;2023-04-27T11:44:07;97893.47;;;13.03;85.40
29733;BME280;16643;43.158;25.302;2023-04-27T11:46:37;97958.00;;;13.40;89.80
29733;BME280;16643;43.158;25.302;2023-04-27T11:49:03;97947.09;;;13.51;88.37
29733;BME280;16643;43.158;25.302;2023-04-27T11:51:33;97937.72;;;13.26;88.15
29733;BME280;16643;43.158;25.302;2023-04-27T11:54:03;97940.94;;;13.52;86.12
29733;BME280;16643;43.158;25.302;2023-04-27T11:56:38;97944.63;;;13.66;90.77
29733;BME280;16643;43.158;25.302;2023-04-27T11:59:05;97923.22;;;13.58;87.07
29733;BME280;16643;43.158;25.302;2023-04-27T12:01:34;74308.69;;;-142.82;87.07
29733;BME280;16643;43.158;25.302;2023-04-27T12:04:02;97926.84;;;13.74;86.88
29733;BME280;16643;43.158;25.302;2023-04-27T12:06:28;97926.97;;;14.09;83.68
29733;BME280;16643;43.158;25.302;2023-04-27T12:08:57;97938.63;;;14.39;81.04
29733;BME280;16643;43.158;25.302;2023-04-27T12:11:24;97938.53;;;14.22;81.99
29733;BME280;16643;43.158;25.302;2023-04-27T12:13:51;97918.09;;;13.75;79.30
29733;BME280;16643;43.158;25.302;2023-04-27T12:16:20;97922.03;;;14.22;82.08
29733;BME280;16643;43.158;25.302;2023-04-27T12:18:49;97933.81;;;14.83;81.24
29733;BME280;16643;43.158;25.302;2023-04-27T12:21:15;97935.13;;;15.09;75.12
29733;BME280;16643;43.158;25.302;2023-04-27T12:23:41;97942.31;;;15.56;78.08
29733;BME280;16643;43.158;25.302;2023-04-27T12:26:07;97916.38;;;15.34;74.27
29733;BME280;16643;43.158;25.302;2023-04-27T12:28:33;97918.16;;;15.67;70.40
29733;BME280;16643;43.158;25.302;2023-04-27T12:31:01;97898.06;;;15.17;70.79
29733;BME280;16643;43.158;25.302;2023-04-27T12:33:28;97919.88;;;15.00;75.28
29733;BME280;16643;43.158;25.302;2023-04-27T12:35:54;97891.78;;;14.86;78.53
29733;BME280;16643;43.158;25.302;2023-04-27T12:38:20;97924.34;;;14.64;77.83
29733;BME280;16643;43.158;25.302;2023-04-27T12:40:47;97904.41;;;14.61;83.78
29733;BME280;16643;43.158;25.302;2023-04-27T12:43:12;97914.47;;;14.69;82.05
29733;BME280;16643;43.158;25.302;2023-04-27T12:45:38;97934.34;;;14.37;77.71
29733;BME280;16643;43.158;25.302;2023-04-27T12:48:04;97839.38;;;14.00;83.43
29733;BME280;16643;43.158;25.302;2023-04-27T12:50:31;97918.72;;;14.35;77.39
29733;BME280;16643;43.158;25.302;2023-04-27T12:52:56;97903.28;;;13.76;78.16
29733;BME280;16643;43.158;25.302;2023-04-27T12:55:22;97890.72;;;13.65;84.63
29733;BME280;16643;43.158;25.302;2023-04-27T12:57:47;97887.88;;;13.70;88.44